sensor_id;sensor_type;location;lat;lon;timestamp;temperature;humidity
75821;DHT22;64454;51.984;9.838;2022-10-22T00:02:25;15.70;99.90
75821;DHT22;64454;51.984;9.838;2022-10-22T00:04:54;15.80;99.90
75821;DHT22;64454;51.984;9.838;2022-10-22T00:07:21;15.60;99.90
75821;DHT22;64454;51.984;9.838;2022-10-22T00:09:49;15.50;99.90
75821;DHT22;64454;51.984;9.838;2022-10-22T00:12:16;15.50;99.90
75821;DHT22;64454;51.984;9.838;2022-10-22T00:14:44;15.50;99.90
75821;DHT22;64454;51.984;9.838;2022-10-22T00:17:12;15.40;99.90
75821;DHT22;64454;51.984;9.838;2022-10-22T00:19:39;15.50;99.90
75821;DHT22;64454;51.984;9.838;2022-10-22T00:22:08;15.50;99.90
75821;DHT22;64454;51.984;9.838;2022-10-22T00:24:38;15.50;99.90
75821;DHT22;64454;51.984;9.838;2022-10-22T00:27:08;15.50;99.90
75821;DHT22;64454;51.984;9.838;2022-10-22T00:29:36;15.40;99.90
75821;DHT22;64454;51.984;9.838;2022-10-22T00:32:04;15.30;99.90
75821;DHT22;64454;51.984;9.838;2022-10-22T00:34:32;15.40;99.90
75821;DHT22;64454;51.984;9.838;2022-10-22T00:37:00;15.40;99.90
75821;DHT22;64454;51.984;9.838;2022-10-22T00:39:28;15.50;99.90
75821;DHT22;64454;51.984;9.838;2022-10-22T00:41:57;15.60;99.90
75821;DHT22;64454;51.984;9.838;2022-10-22T00:47:34;15.70;99.90
75821;DHT22;64454;51.984;9.838;2022-10-22T00:50:05;15.80;99.90
75821;DHT22;64454;51.984;9.838;2022-10-22T00:52:37;15.80;99.90
75821;DHT22;64454;51.984;9.838;2022-10-22T00:55:07;15.80;99.90
75821;DHT22;64454;51.984;9.838;2022-10-22T00:57:35;15.80;99.90
75821;DHT22;64454;51.984;9.838;2022-10-22T01:00:03;15.80;99.90
75821;DHT22;64454;51.984;9.838;2022-10-22T01:02:32;15.80;99.90
75821;DHT22;64454;51.984;9.838;2022-10-22T01:04:59;15.80;99.90
75821;DHT22;64454;51.984;9.838;2022-10-22T01:07:26;15.80;99.90
75821;DHT22;64454;51.984;9.838;2022-10-22T01:10:02;15.80;99.90
75821;DHT22;64454;51.984;9.838;2022-10-22T01:12:42;15.80;99.90
75821;DHT22;64454;51.984;9.838;2022-10-22T01:15:21;15.80;99.90
75821;DHT22;64454;51.984;9.838;2022-10-22T01:17:59;15.70;99.90
75821;DHT22;64454;51.984;9.838;2022-10-22T01:20:44;15.70;99.90
75821;DHT22;64454;51.984;9.838;2022-10-22T01:23:30;15.70;99.90
75821;DHT22;64454;51.984;9.838;2022-10-22T01:26:20;15.70;99.90
75821;DHT22;64454;51.984;9.838;2022-10-22T01:29:00;15.70;99.90
75821;DHT22;64454;51.984;9.838;2022-10-22T01:31:32;15.70;99.90
75821;DHT22;64454;51.984;9.838;2022-10-22T01:34:05;15.60;99.90
75821;DHT22;64454;51.984;9.838;2022-10-22T01:36:36;15.60;99.90
75821;DHT22;64454;51.984;9.838;2022-10-22T01:39:05;15.60;99.90
75821;DHT22;64454;51.984;9.838;2022-10-22T01:41:34;15.60;99.90
75821;DHT22;64454;51.984;9.838;2022-10-22T01:44:02;15.60;99.90
75821;DHT22;64454;51.984;9.838;2022-10-22T01:46:30;15.60;99.90
75821;DHT22;64454;51.984;9.838;2022-10-22T01:49:10;15.60;99.90
75821;DHT22;64454;51.984;9.838;2022-10-22T01:51:51;15.50;99.90
75821;DHT22;64454;51.984;9.838;2022-10-22T01:54:31;15.50;99.90
75821;DHT22;64454;51.984;9.838;2022-10-22T01:57:07;15.50;99.90
75821;DHT22;64454;51.984;9.838;2022-10-22T01:59:49;15.50;99.90
75821;DHT22;64454;51.984;9.838;2022-10-22T02:02:34;15.40;99.90
75821;DHT22;64454;51.984;9.838;2022-10-22T02:05:09;15.40;99.90
75821;DHT22;64454;51.984;9.838;2022-10-22T02:07:43;15.40;99.90
75821;DHT22;64454;51.984;9.838;2022-10-22T02:10:13;15.40;99.90
75821;DHT22;64454;51.984;9.838;2022-10-22T02:12:42;15.40;99.90
75821;DHT22;64454;51.984;9.838;2022-10-22T02:15:13;15.40;99.90
75821;DHT22;64454;51.984;9.838;2022-10-22T02:17:44;15.40;99.90
75821;DHT22;64454;51.984;9.838;2022-10-22T02:20:16;15.30;99.90
75821;DHT22;64454;51.984;9.838;2022-10-22T02:22:46;15.40;99.90
75821;DHT22;64454;51.984;9.838;2022-10-22T02:25:14;15.30;99.90
75821;DHT22;64454;51.984;9.838;2022-10-22T02:27:44;15.30;99.90
75821;DHT22;64454;51.984;9.838;2022-10-22T02:30:17;15.30;99.90
75821;DHT22;64454;51.984;9.838;2022-10-22T02:32:50;15.30;99.90
75821;DHT22;64454;51.984;9.838;2022-10-22T02:35:23;15.30;99.90
75821;DHT22;64454;51.984;9.838;2022-10-22T02:37:54;15.30;99.90
75821;DHT22;64454;51.984;9.838;2022-10-22T02:40:23;15.30;99.90
75821;DHT22;64454;51.984;9.838;2022-10-22T02:42:52;15.20;99.90
75821;DHT22;64454;51.984;9.838;2022-10-22T02:45:21;15.20;99.90
75821;DHT22;64454;51.984;9.838;2022-10-22T02:47:48;15.20;99.90
75821;DHT22;64454;51.984;9.838;2022-10-22T02:50:15;15.10;99.90
75821;DHT22;64454;51.984;9.838;2022-10-22T02:52:43;15.10;99.90
75821;DHT22;64454;51.984;9.838;2022-10-22T02:55:10;15.10;99.90
75821;DHT22;64454;51.984;9.838;2022-10-22T02:57:37;15.10;99.90
75821;DHT22;64454;51.984;9.838;2022-10-22T03:00:05;15.00;99.90
75821;DHT22;64454;51.984;9.838;2022-10-22T03:02:34;15.00;99.90
75821;DHT22;64454;51.984;9.838;2022-10-22T03:05:01;15.00;99.90
75821;DHT22;64454;51.984;9.838;2022-10-22T03:07:29;15.00;99.90
75821;DHT22;64454;51.984;9.838;2022-10-22T03:09:56;15.00;99.90
75821;DHT22;64454;51.984;9.838;2022-10-22T03:12:23;15.00;99.90
75821;DHT22;64454;51.984;9.838;2022-10-22T03:14:50;15.10;99.90
75821;DHT22;64454;51.984;9.838;2022-10-22T03:17:17;15.10;99.90
75821;DHT22;64454;51.984;9.838;2022-10-22T03:19:45;15.10;99.90
75821;DHT22;64454;51.984;9.838;2022-10-22T03:22:14;15.10;99.90
75821;DHT22;64454;51.984;9.838;2022-10-22T03:24:49;15.10;99.90
75821;DHT22;64454;51.984;9.838;2022-10-22T03:27:20;15.10;99.90
75821;DHT22;64454;51.984;9.838;2022-10-22T03:29:49;15.10;99.90
75821;DHT22;64454;51.984;9.838;2022-10-22T03:32:18;15.00;99.90
75821;DHT22;64454;51.984;9.838;2022-10-22T03:34:46;15.00;99.90
75821;DHT22;64454;51.984;9.838;2022-10-22T03:37:13;15.00;99.90
75821;DHT22;64454;51.984;9.838;2022-10-22T03:39:40;15.00;99.90
75821;DHT22;64454;51.984;9.838;2022-10-22T03:42:08;15.00;99.90
75821;DHT22;64454;51.984;9.838;2022-10-22T03:44:35;15.10;99.90
75821;DHT22;64454;51.984;9.838;2022-10-22T03:47:04;15.00;99.90
75821;DHT22;64454;51.984;9.838;2022-10-22T03:49:31;15.00;99.90
75821;DHT22;64454;51.984;9.838;2022-10-22T03:52:05;15.00;99.90
75821;DHT22;64454;51.984;9.838;2022-10-22T03:54:34;15.00;99.90
75821;DHT22;64454;51.984;9.838;2022-10-22T03:57:02;15.00;99.90
75821;DHT22;64454;51.984;9.838;2022-10-22T03:59:33;15.00;99.90
75821;DHT22;64454;51.984;9.838;2022-10-22T04:02:01;15.00;99.90
75821;DHT22;64454;51.984;9.838;2022-10-22T04:04:29;15.00;99.90
75821;DHT22;64454;51.984;9.838;2022-10-22T04:06:56;15.00;99.90
75821;DHT22;64454;51.984;9.838;2022-10-22T04:09:24;15.00;99.90
75821;DHT22;64454;51.984;9.838;2022-10-22T04:11:51;15.00;99.90
75821;DHT22;64454;51.984;9.838;2022-10-22T04:14:18;15.10;99.90
75821;DHT22;64454;51.984;9.838;2022-10-22T04:16:45;15.10;99.90
75821;DHT22;64454;51.984;9.838;2022-10-22T04:19:12;15.10;99.90
75821;DHT22;64454;51.984;9.838;2022-10-22T04:21:39;15.00;99.90
75821;DHT22;64454;51.984;9.838;2022-10-22T04:24:07;15.00;99.90
75821;DHT22;64454;51.984;9.838;2022-10-22T04:26:35;15.00;99.90
75821;DHT22;64454;51.984;9.838;2022-10-22T04:29:03;15.00;99.90
75821;DHT22;64454;51.984;9.838;2022-10-22T04:31:32;15.00;99.90
75821;DHT22;64454;51.984;9.838;2022-10-22T04:33:59;15.00;99.90
75821;DHT22;64454;51.984;9.838;2022-10-22T04:36:27;15.00;99.90
75821;DHT22;64454;51.984;9.838;2022-10-22T04:38:57;15.10;99.90
75821;DHT22;64454;51.984;9.838;2022-10-22T04:41:26;15.10;99.90
75821;DHT22;64454;51.984;9.838;2022-10-22T04:43:57;15.10;99.90
75821;DHT22;64454;51.984;9.838;2022-10-22T04:46:25;15.10;99.90
75821;DHT22;64454;51.984;9.838;2022-10-22T04:48:53;15.10;99.90
75821;DHT22;64454;51.984;9.838;2022-10-22T04:51:22;15.10;99.90
75821;DHT22;64454;51.984;9.838;2022-10-22T04:53:51;15.20;99.90
75821;DHT22;64454;51.984;9.838;2022-10-22T04:56:20;15.20;99.90
75821;DHT22;64454;51.984;9.838;2022-10-22T04:58:50;15.20;99.90
75821;DHT22;64454;51.984;9.838;2022-10-22T05:01:21;15.20;99.90
75821;DHT22;64454;51.984;9.838;2022-10-22T05:03:51;15.20;99.90
75821;DHT22;64454;51.984;9.838;2022-10-22T05:06:37;15.20;99.90
75821;DHT22;64454;51.984;9.838;2022-10-22T05:09:25;15.10;99.90
75821;DHT22;64454;51.984;9.838;2022-10-22T05:12:12;15.10;99.90
75821;DHT22;64454;51.984;9.838;2022-10-22T05:14:39;15.10;99.90
75821;DHT22;64454;51.984;9.838;2022-10-22T05:17:07;15.10;99.90
75821;DHT22;64454;51.984;9.838;2022-10-22T05:19:34;15.00;99.90
75821;DHT22;64454;51.984;9.838;2022-10-22T05:22:03;15.00;99.90
75821;DHT22;64454;51.984;9.838;2022-10-22T05:24:32;15.00;99.90
75821;DHT22;64454;51.984;9.838;2022-10-22T05:27:01;15.00;99.90
75821;DHT22;64454;51.984;9.838;2022-10-22T05:29:28;15.00;99.90
75821;DHT22;64454;51.984;9.838;2022-10-22T05:31:55;15.00;99.90
75821;DHT22;64454;51.984;9.838;2022-10-22T05:34:24;15.00;99.90
75821;DHT22;64454;51.984;9.838;2022-10-22T05:36:51;14.90;99.90
75821;DHT22;64454;51.984;9.838;2022-10-22T05:39:17;14.90;99.90
75821;DHT22;64454;51.984;9.838;2022-10-22T05:41:45;14.90;99.90
75821;DHT22;64454;51.984;9.838;2022-10-22T05:44:12;14.90;99.90
75821;DHT22;64454;51.984;9.838;2022-10-22T05:46:39;14.80;99.90
75821;DHT22;64454;51.984;9.838;2022-10-22T05:49:11;14.80;99.90
75821;DHT22;64454;51.984;9.838;2022-10-22T05:51:41;14.80;99.90
75821;DHT22;64454;51.984;9.838;2022-10-22T05:54:15;14.80;99.90
75821;DHT22;64454;51.984;9.838;2022-10-22T05:56:44;14.80;99.90
75821;DHT22;64454;51.984;9.838;2022-10-22T05:59:11;14.80;99.90
75821;DHT22;64454;51.984;9.838;2022-10-22T06:01:39;14.80;99.90
75821;DHT22;64454;51.984;9.838;2022-10-22T06:04:10;14.90;99.90
75821;DHT22;64454;51.984;9.838;2022-10-22T06:06:40;14.90;99.90
75821;DHT22;64454;51.984;9.838;2022-10-22T06:09:13;14.90;99.90
75821;DHT22;64454;51.984;9.838;2022-10-22T06:11:43;14.90;99.90
75821;DHT22;64454;51.984;9.838;2022-10-22T06:14:10;15.00;99.90
75821;DHT22;64454;51.984;9.838;2022-10-22T06:16:37;15.00;99.90
75821;DHT22;64454;51.984;9.838;2022-10-22T06:19:05;15.00;99.90
75821;DHT22;64454;51.984;9.838;2022-10-22T06:21:32;15.10;99.90
75821;DHT22;64454;51.984;9.838;2022-10-22T06:24:00;15.20;99.90
75821;DHT22;64454;51.984;9.838;2022-10-22T06:26:28;15.20;99.90
75821;DHT22;64454;51.984;9.838;2022-10-22T06:28:56;15.20;99.90
75821;DHT22;64454;51.984;9.838;2022-10-22T06:31:24;15.20;99.90
75821;DHT22;64454;51.984;9.838;2022-10-22T06:33:52;15.20;99.90
75821;DHT22;64454;51.984;9.838;2022-10-22T06:36:21;15.20;99.90
75821;DHT22;64454;51.984;9.838;2022-10-22T06:38:51;15.30;99.90
75821;DHT22;64454;51.984;9.838;2022-10-22T06:41:20;15.30;99.90
75821;DHT22;64454;51.984;9.838;2022-10-22T06:43:48;15.30;99.90
75821;DHT22;64454;51.984;9.838;2022-10-22T06:46:17;15.30;99.90
75821;DHT22;64454;51.984;9.838;2022-10-22T06:48:48;15.30;99.90
75821;DHT22;64454;51.984;9.838;2022-10-22T06:51:16;15.30;99.90
75821;DHT22;64454;51.984;9.838;2022-10-22T06:53:43;15.30;99.90
75821;DHT22;64454;51.984;9.838;2022-10-22T06:56:12;15.40;99.90
75821;DHT22;64454;51.984;9.838;2022-10-22T06:58:41;15.40;99.90
75821;DHT22;64454;51.984;9.838;2022-10-22T07:01:11;15.40;99.90
75821;DHT22;64454;51.984;9.838;2022-10-22T07:03:40;15.40;99.90
75821;DHT22;64454;51.984;9.838;2022-10-22T07:06:09;15.40;99.90
75821;DHT22;64454;51.984;9.838;2022-10-22T07:08:38;15.40;99.90
75821;DHT22;64454;51.984;9.838;2022-10-22T07:11:07;15.40;99.90
75821;DHT22;64454;51.984;9.838;2022-10-22T07:13:36;15.40;99.90
75821;DHT22;64454;51.984;9.838;2022-10-22T07:16:06;15.40;99.90
75821;DHT22;64454;51.984;9.838;2022-10-22T07:18:34;15.40;99.90
75821;DHT22;64454;51.984;9.838;2022-10-22T07:21:03;15.50;99.90
75821;DHT22;64454;51.984;9.838;2022-10-22T07:23:31;15.50;99.90
75821;DHT22;64454;51.984;9.838;2022-10-22T07:25:58;15.50;99.90
75821;DHT22;64454;51.984;9.838;2022-10-22T07:28:27;15.60;99.90
75821;DHT22;64454;51.984;9.838;2022-10-22T07:30:54;15.70;99.90
75821;DHT22;64454;51.984;9.838;2022-10-22T07:33:22;15.70;99.90
75821;DHT22;64454;51.984;9.838;2022-10-22T07:35:49;15.80;99.90
75821;DHT22;64454;51.984;9.838;2022-10-22T07:38:16;15.90;99.90
75821;DHT22;64454;51.984;9.838;2022-10-22T07:40:43;16.10;99.90
75821;DHT22;64454;51.984;9.838;2022-10-22T07:43:10;16.30;99.90
75821;DHT22;64454;51.984;9.838;2022-10-22T07:45:37;16.60;99.90
75821;DHT22;64454;51.984;9.838;2022-10-22T07:48:05;17.10;99.90
75821;DHT22;64454;51.984;9.838;2022-10-22T07:50:33;18.30;99.90
75821;DHT22;64454;51.984;9.838;2022-10-22T07:53:00;19.70;68.00
75821;DHT22;64454;51.984;9.838;2022-10-22T07:55:27;21.10;1.00
75821;DHT22;64454;51.984;9.838;2022-10-22T07:57:54;22.40;1.00
75821;DHT22;64454;51.984;9.838;2022-10-22T08:00:21;23.70;1.00
75821;DHT22;64454;51.984;9.838;2022-10-22T08:02:48;24.90;1.00
75821;DHT22;64454;51.984;9.838;2022-10-22T08:05:15;25.80;1.00
75821;DHT22;64454;51.984;9.838;2022-10-22T08:07:44;26.50;1.00
75821;DHT22;64454;51.984;9.838;2022-10-22T08:10:11;26.70;1.00
75821;DHT22;64454;51.984;9.838;2022-10-22T08:12:38;26.90;1.00
75821;DHT22;64454;51.984;9.838;2022-10-22T08:15:07;27.10;1.00
75821;DHT22;64454;51.984;9.838;2022-10-22T08:17:35;27.90;1.00
75821;DHT22;64454;51.984;9.838;2022-10-22T08:20:02;28.80;1.00
75821;DHT22;64454;51.984;9.838;2022-10-22T08:22:29;30.30;1.00
75821;DHT22;64454;51.984;9.838;2022-10-22T08:24:58;31.30;1.00
75821;DHT22;64454;51.984;9.838;2022-10-22T08:27:25;30.30;1.00
75821;DHT22;64454;51.984;9.838;2022-10-22T08:29:52;29.60;1.00
75821;DHT22;64454;51.984;9.838;2022-10-22T08:32:19;29.40;1.00
75821;DHT22;64454;51.984;9.838;2022-10-22T08:34:46;28.80;1.00
75821;DHT22;64454;51.984;9.838;2022-10-22T08:37:12;28.00;1.00
75821;DHT22;64454;51.984;9.838;2022-10-22T08:39:41;26.70;1.00
75821;DHT22;64454;51.984;9.838;2022-10-22T08:42:34;25.20;1.00
75821;DHT22;64454;51.984;9.838;2022-10-22T08:45:21;23.70;1.00
75821;DHT22;64454;51.984;9.838;2022-10-22T08:48:01;22.50;1.00
75821;DHT22;64454;51.984;9.838;2022-10-22T08:50:38;21.90;1.00
75821;DHT22;64454;51.984;9.838;2022-10-22T08:53:12;22.40;1.00
75821;DHT22;64454;51.984;9.838;2022-10-22T08:55:42;22.40;1.00
75821;DHT22;64454;51.984;9.838;2022-10-22T08:58:17;22.70;1.00
75821;DHT22;64454;51.984;9.838;2022-10-22T09:00:54;24.00;1.00
75821;DHT22;64454;51.984;9.838;2022-10-22T09:03:36;24.30;1.00
75821;DHT22;64454;51.984;9.838;2022-10-22T09:06:11;24.90;1.00
75821;DHT22;64454;51.984;9.838;2022-10-22T09:08:42;25.00;1.00
75821;DHT22;64454;51.984;9.838;2022-10-22T09:11:19;25.00;1.00
75821;DHT22;64454;51.984;9.838;2022-10-22T09:13:51;24.80;1.00
75821;DHT22;64454;51.984;9.838;2022-10-22T09:16:24;24.70;1.00
75821;DHT22;64454;51.984;9.838;2022-10-22T09:19:11;25.90;1.00
75821;DHT22;64454;51.984;9.838;2022-10-22T09:21:53;27.00;1.00
75821;DHT22;64454;51.984;9.838;2022-10-22T09:24:33;27.40;1.00
75821;DHT22;64454;51.984;9.838;2022-10-22T09:27:10;28.00;1.00
75821;DHT22;64454;51.984;9.838;2022-10-22T09:29:40;27.90;1.00
75821;DHT22;64454;51.984;9.838;2022-10-22T09:32:08;27.50;1.00
75821;DHT22;64454;51.984;9.838;2022-10-22T09:34:35;27.00;1.00
75821;DHT22;64454;51.984;9.838;2022-10-22T09:37:03;26.70;1.00
75821;DHT22;64454;51.984;9.838;2022-10-22T09:39:33;27.30;1.00
75821;DHT22;64454;51.984;9.838;2022-10-22T09:42:03;28.70;1.00
75821;DHT22;64454;51.984;9.838;2022-10-22T09:44:32;30.70;1.00
75821;DHT22;64454;51.984;9.838;2022-10-22T09:47:03;32.70;1.00
75821;DHT22;64454;51.984;9.838;2022-10-22T09:49:33;33.60;1.00
75821;DHT22;64454;51.984;9.838;2022-10-22T09:52:02;35.30;1.00
75821;DHT22;64454;51.984;9.838;2022-10-22T09:54:42;36.60;1.00
75821;DHT22;64454;51.984;9.838;2022-10-22T09:57:14;37.70;1.00
75821;DHT22;64454;51.984;9.838;2022-10-22T09:59:44;37.70;1.00
75821;DHT22;64454;51.984;9.838;2022-10-22T10:02:18;37.70;1.00
75821;DHT22;64454;51.984;9.838;2022-10-22T10:04:48;37.70;1.00
75821;DHT22;64454;51.984;9.838;2022-10-22T10:07:20;37.80;1.00
75821;DHT22;64454;51.984;9.838;2022-10-22T10:09:49;39.10;1.00
75821;DHT22;64454;51.984;9.838;2022-10-22T10:12:32;39.20;1.00
75821;DHT22;64454;51.984;9.838;2022-10-22T10:15:12;38.90;1.00
75821;DHT22;64454;51.984;9.838;2022-10-22T10:17:53;37.70;1.00
75821;DHT22;64454;51.984;9.838;2022-10-22T10:20:36;35.90;1.00
75821;DHT22;64454;51.984;9.838;2022-10-22T10:23:14;33.00;1.00
75821;DHT22;64454;51.984;9.838;2022-10-22T10:25:55;30.80;1.00
75821;DHT22;64454;51.984;9.838;2022-10-22T10:28:49;28.50;1.00
75821;DHT22;64454;51.984;9.838;2022-10-22T10:31:33;26.90;1.00
75821;DHT22;64454;51.984;9.838;2022-10-22T10:34:21;24.80;1.00
75821;DHT22;64454;51.984;9.838;2022-10-22T10:37:03;24.30;1.00
75821;DHT22;64454;51.984;9.838;2022-10-22T10:39:50;23.80;1.00
75821;DHT22;64454;51.984;9.838;2022-10-22T10:42:34;23.60;1.00
75821;DHT22;64454;51.984;9.838;2022-10-22T10:45:15;23.60;1.00
75821;DHT22;64454;51.984;9.838;2022-10-22T10:48:06;23.20;1.00
75821;DHT22;64454;51.984;9.838;2022-10-22T10:50:52;23.20;1.00
75821;DHT22;64454;51.984;9.838;2022-10-22T10:53:37;23.40;1.00
75821;DHT22;64454;51.984;9.838;2022-10-22T10:56:28;23.90;1.00
75821;DHT22;64454;51.984;9.838;2022-10-22T10:59:08;24.50;1.00
75821;DHT22;64454;51.984;9.838;2022-10-22T11:01:56;25.00;1.00
75821;DHT22;64454;51.984;9.838;2022-10-22T11:05:10;25.20;1.00
75821;DHT22;64454;51.984;9.838;2022-10-22T11:07:54;24.80;1.00
75821;DHT22;64454;51.984;9.838;2022-10-22T11:10:29;23.60;1.00
75821;DHT22;64454;51.984;9.838;2022-10-22T11:13:05;23.00;1.00
75821;DHT22;64454;51.984;9.838;2022-10-22T11:15:38;22.60;1.00
75821;DHT22;64454;51.984;9.838;2022-10-22T11:18:13;22.30;1.00
75821;DHT22;64454;51.984;9.838;2022-10-22T11:20:53;22.00;1.00
75821;DHT22;64454;51.984;9.838;2022-10-22T11:23:33;21.60;1.00
75821;DHT22;64454;51.984;9.838;2022-10-22T11:26:05;21.50;1.00
75821;DHT22;64454;51.984;9.838;2022-10-22T11:28:41;21.50;1.00
75821;DHT22;64454;51.984;9.838;2022-10-22T11:31:14;21.70;1.00
75821;DHT22;64454;51.984;9.838;2022-10-22T11:33:47;21.90;1.00
75821;DHT22;64454;51.984;9.838;2022-10-22T11:36:21;22.10;1.00
75821;DHT22;64454;51.984;9.838;2022-10-22T11:38:52;22.40;1.00
75821;DHT22;64454;51.984;9.838;2022-10-22T11:41:23;22.50;1.00
75821;DHT22;64454;51.984;9.838;2022-10-22T11:44:07;22.50;1.00
75821;DHT22;64454;51.984;9.838;2022-10-22T11:46:43;22.40;1.00
75821;DHT22;64454;51.984;9.838;2022-10-22T11:49:24;22.40;1.00
75821;DHT22;64454;51.984;9.838;2022-10-22T11:52:20;22.30;1.00
75821;DHT22;64454;51.984;9.838;2022-10-22T11:54:53;22.10;1.00
75821;DHT22;64454;51.984;9.838;2022-10-22T11:57:27;22.00;1.00
75821;DHT22;64454;51.984;9.838;2022-10-22T11:59:58;22.20;1.00
75821;DHT22;64454;51.984;9.838;2022-10-22T12:02:37;22.50;1.00
75821;DHT22;64454;51.984;9.838;2022-10-22T12:05:34;22.80;1.00
75821;DHT22;64454;51.984;9.838;2022-10-22T12:08:20;23.10;1.00
75821;DHT22;64454;51.984;9.838;2022-10-22T12:11:04;23.20;1.00
75821;DHT22;64454;51.984;9.838;2022-10-22T12:13:55;23.00;1.00
75821;DHT22;64454;51.984;9.838;2022-10-22T12:16:35;22.90;1.00
75821;DHT22;64454;51.984;9.838;2022-10-22T12:19:11;23.30;1.00
75821;DHT22;64454;51.984;9.838;2022-10-22T12:21:42;23.60;1.00
75821;DHT22;64454;51.984;9.838;2022-10-22T12:24:13;23.60;1.00
75821;DHT22;64454;51.984;9.838;2022-10-22T12:26:42;23.10;1.00
75821;DHT22;64454;51.984;9.838;2022-10-22T12:29:12;22.60;1.00
75821;DHT22;64454;51.984;9.838;2022-10-22T12:31:42;22.20;1.00
75821;DHT22;64454;51.984;9.838;2022-10-22T12:34:13;21.70;1.00
75821;DHT22;64454;51.984;9.838;2022-10-22T12:36:42;21.60;1.00
75821;DHT22;64454;51.984;9.838;2022-10-22T12:39:12;21.40;1.00
75821;DHT22;64454;51.984;9.838;2022-10-22T12:41:42;21.50;1.00
75821;DHT22;64454;51.984;9.838;2022-10-22T12:44:11;21.60;1.00
75821;DHT22;64454;51.984;9.838;2022-10-22T12:46:40;21.60;1.00
75821;DHT22;64454;51.984;9.838;2022-10-22T12:49:14;22.50;1.00
75821;DHT22;64454;51.984;9.838;2022-10-22T12:51:45;23.70;1.00
75821;DHT22;64454;51.984;9.838;2022-10-22T12:54:23;26.30;1.00
75821;DHT22;64454;51.984;9.838;2022-10-22T12:56:54;27.40;1.00
75821;DHT22;64454;51.984;9.838;2022-10-22T12:59:24;27.00;1.00
75821;DHT22;64454;51.984;9.838;2022-10-22T13:01:55;26.10;1.00
75821;DHT22;64454;51.984;9.838;2022-10-22T13:04:31;25.50;1.00
75821;DHT22;64454;51.984;9.838;2022-10-22T13:07:13;24.80;1.00
75821;DHT22;64454;51.984;9.838;2022-10-22T13:09:45;24.40;1.00
75821;DHT22;64454;51.984;9.838;2022-10-22T13:12:14;24.30;1.00
75821;DHT22;64454;51.984;9.838;2022-10-22T13:14:50;24.40;1.00
75821;DHT22;64454;51.984;9.838;2022-10-22T13:17:19;24.20;1.00
75821;DHT22;64454;51.984;9.838;2022-10-22T13:19:59;24.20;1.00
75821;DHT22;64454;51.984;9.838;2022-10-22T13:22:32;23.90;1.00
75821;DHT22;64454;51.984;9.838;2022-10-22T13:25:17;23.50;1.00
75821;DHT22;64454;51.984;9.838;2022-10-22T13:27:50;23.20;1.00
75821;DHT22;64454;51.984;9.838;2022-10-22T13:30:21;23.00;1.00
75821;DHT22;64454;51.984;9.838;2022-10-22T13:32:52;22.60;1.00
75821;DHT22;64454;51.984;9.838;2022-10-22T13:35:23;22.40;1.00
75821;DHT22;64454;51.984;9.838;2022-10-22T13:37:52;21.90;1.00
75821;DHT22;64454;51.984;9.838;2022-10-22T13:40:20;21.40;1.00
75821;DHT22;64454;51.984;9.838;2022-10-22T13:42:48;21.20;1.00
75821;DHT22;64454;51.984;9.838;2022-10-22T13:45:16;21.00;1.00
75821;DHT22;64454;51.984;9.838;2022-10-22T13:47:47;20.80;1.00
75821;DHT22;64454;51.984;9.838;2022-10-22T13:50:18;20.40;1.00
75821;DHT22;64454;51.984;9.838;2022-10-22T13:52:49;20.30;1.00
75821;DHT22;64454;51.984;9.838;2022-10-22T13:55:21;20.00;1.00
75821;DHT22;64454;51.984;9.838;2022-10-22T13:57:53;19.90;1.00
75821;DHT22;64454;51.984;9.838;2022-10-22T14:00:22;19.80;1.00
75821;DHT22;64454;51.984;9.838;2022-10-22T14:02:52;19.80;1.00
75821;DHT22;64454;51.984;9.838;2022-10-22T14:05:22;19.70;1.00
75821;DHT22;64454;51.984;9.838;2022-10-22T14:07:49;19.50;1.00
75821;DHT22;64454;51.984;9.838;2022-10-22T14:10:19;19.60;1.00
75821;DHT22;64454;51.984;9.838;2022-10-22T14:12:48;19.50;1.00
75821;DHT22;64454;51.984;9.838;2022-10-22T14:15:19;19.30;1.00
75821;DHT22;64454;51.984;9.838;2022-10-22T14:17:51;19.20;1.00
75821;DHT22;64454;51.984;9.838;2022-10-22T14:20:22;19.00;1.00
75821;DHT22;64454;51.984;9.838;2022-10-22T14:22:51;18.80;1.00
75821;DHT22;64454;51.984;9.838;2022-10-22T14:25:20;18.90;1.00
75821;DHT22;64454;51.984;9.838;2022-10-22T14:27:48;19.00;1.00
75821;DHT22;64454;51.984;9.838;2022-10-22T14:30:19;19.30;1.00
75821;DHT22;64454;51.984;9.838;2022-10-22T14:36:47;19.80;1.00
75821;DHT22;64454;51.984;9.838;2022-10-22T14:39:14;19.90;1.00
75821;DHT22;64454;51.984;9.838;2022-10-22T14:41:42;20.10;1.00
75821;DHT22;64454;51.984;9.838;2022-10-22T14:44:10;20.00;1.00
75821;DHT22;64454;51.984;9.838;2022-10-22T14:46:40;19.90;1.00
75821;DHT22;64454;51.984;9.838;2022-10-22T14:49:08;19.90;1.00
75821;DHT22;64454;51.984;9.838;2022-10-22T14:51:35;19.70;1.00
75821;DHT22;64454;51.984;9.838;2022-10-22T14:54:02;19.60;1.00
75821;DHT22;64454;51.984;9.838;2022-10-22T14:56:30;19.50;1.00
75821;DHT22;64454;51.984;9.838;2022-10-22T14:59:00;19.40;1.00
75821;DHT22;64454;51.984;9.838;2022-10-22T15:01:27;19.40;1.00
75821;DHT22;64454;51.984;9.838;2022-10-22T15:03:56;19.50;1.00
75821;DHT22;64454;51.984;9.838;2022-10-22T15:06:23;19.80;1.00
75821;DHT22;64454;51.984;9.838;2022-10-22T15:08:50;20.80;1.00
75821;DHT22;64454;51.984;9.838;2022-10-22T15:11:17;21.50;1.00
75821;DHT22;64454;51.984;9.838;2022-10-22T15:13:44;21.70;1.00
75821;DHT22;64454;51.984;9.838;2022-10-22T15:16:12;21.70;1.00
75821;DHT22;64454;51.984;9.838;2022-10-22T15:18:41;21.40;1.00
75821;DHT22;64454;51.984;9.838;2022-10-22T15:21:17;20.90;1.00
75821;DHT22;64454;51.984;9.838;2022-10-22T15:23:46;20.70;1.00
75821;DHT22;64454;51.984;9.838;2022-10-22T15:26:13;20.50;1.00
75821;DHT22;64454;51.984;9.838;2022-10-22T15:28:41;20.20;1.00
75821;DHT22;64454;51.984;9.838;2022-10-22T15:31:12;20.00;1.00
75821;DHT22;64454;51.984;9.838;2022-10-22T15:33:41;19.90;1.00
75821;DHT22;64454;51.984;9.838;2022-10-22T15:36:09;19.70;1.00
75821;DHT22;64454;51.984;9.838;2022-10-22T15:38:39;19.50;1.00
75821;DHT22;64454;51.984;9.838;2022-10-22T15:41:09;19.30;1.00
75821;DHT22;64454;51.984;9.838;2022-10-22T15:43:38;19.30;1.00
75821;DHT22;64454;51.984;9.838;2022-10-22T15:46:11;19.30;1.00
75821;DHT22;64454;51.984;9.838;2022-10-22T15:48:39;19.40;1.00
75821;DHT22;64454;51.984;9.838;2022-10-22T15:51:08;19.40;1.00
75821;DHT22;64454;51.984;9.838;2022-10-22T15:53:36;19.40;1.00
75821;DHT22;64454;51.984;9.838;2022-10-22T15:56:06;19.50;1.00
75821;DHT22;64454;51.984;9.838;2022-10-22T15:58:33;19.40;1.00
75821;DHT22;64454;51.984;9.838;2022-10-22T16:01:04;19.40;1.00
75821;DHT22;64454;51.984;9.838;2022-10-22T16:03:32;19.40;1.00
75821;DHT22;64454;51.984;9.838;2022-10-22T16:05:59;19.30;1.00
75821;DHT22;64454;51.984;9.838;2022-10-22T16:08:27;19.30;1.00
75821;DHT22;64454;51.984;9.838;2022-10-22T16:10:54;19.20;1.00
75821;DHT22;64454;51.984;9.838;2022-10-22T16:13:23;19.10;1.00